Time;durP1;ratioP1;P1;durP2;ratioP2;P2;SDS_P1;SDS_P2;PMS_P1;PMS_P2;Temp;Humidity;BMP_temperature;BMP_pressure;BME280_temperature;BME280_humidity;BME280_pressure;Samples;Min_cycle;Max_cycle;Signal;HPM_P1;HPM_P2
2021/12/13 00:01:29;;;;;;;60.45;20.50;;;;;;;-3.60;83.23;100543.25;5043145;28;20039;-65
2021/12/13 00:04:00;;;;;;;47.75;17.88;;;;;;;-3.55;83.65;100533.69;5047326;28;20119;-65
2021/12/13 00:06:30;;;;;;;45.83;14.98;;;;;;;-3.58;84.13;100550.19;5047915;28;20040;-64
2021/12/13 00:08:58;;;;;;;38.83;13.93;;;;;;;-3.43;83.80;100549.34;5025776;28;20094;-66
2021/12/13 00:11:26;;;;;;;47.83;17.83;;;;;;;-3.65;84.21;100564.09;5043644;28;20044;-67
2021/12/13 00:14:06;;;;;;;32.38;9.40;;;;;;;-3.26;83.89;100546.69;5008413;28;20043;-67
2021/12/13 00:16:35;;;;;;;20.73;10.60;;;;;;;-3.25;83.31;100546.69;5041525;28;20075;-65
2021/12/13 00:19:06;;;;;;;35.78;15.65;;;;;;;-3.38;82.40;100534.53;5007771;28;20107;-65
2021/12/13 00:21:40;;;;;;;33.20;11.20;;;;;;;-3.49;83.34;100544.97;5085311;27;20041;-65
2021/12/13 00:24:15;;;;;;;38.25;16.17;;;;;;;-3.54;83.53;100554.56;5119727;27;20083;-64
2021/12/13 00:26:46;;;;;;;38.78;15.95;;;;;;;-3.48;83.34;100553.66;5098779;27;20099;-64
2021/12/13 00:29:20;;;;;;;39.80;17.45;;;;;;;-3.41;83.90;100558.91;5098288;27;20111;-66
2021/12/13 00:32:14;;;;;;;43.35;17.52;;;;;;;-3.36;83.46;100553.66;5098701;27;20050;-65
2021/12/13 00:34:43;;;;;;;39.22;16.38;;;;;;;-3.43;83.38;100554.56;5114010;27;20456;-64
2021/12/13 00:37:16;;;;;;;40.53;16.65;;;;;;;-3.42;83.64;100564.97;5117475;27;20500;-65
2021/12/13 00:39:55;;;;;;;44.67;18.63;;;;;;;-3.51;83.42;100559.78;5080922;27;20046;-66
2021/12/13 00:42:23;;;;;;;31.30;13.55;;;;;;;-3.42;83.36;100557.16;5097952;27;20486;-66
2021/12/13 00:44:52;;;;;;;33.90;14.00;;;;;;;-3.45;84.08;100557.16;5116591;27;20049;-65
2021/12/13 00:47:27;;;;;;;40.95;19.63;;;;;;;-3.65;83.78;100551.06;5079011;27;20705;-64
2021/12/13 00:49:59;;;;;;;36.70;14.15;;;;;;;-3.68;83.97;100549.34;5080173;27;20400;-64
2021/12/13 00:52:24;;;;;;;11.45;6.15;;;;;;;-3.49;84.58;100554.53;5115905;27;20051;-64
2021/12/13 00:54:52;;;;;;;33.38;14.48;;;;;;;-3.49;83.76;100557.16;5115771;27;20099;-64
2021/12/13 00:57:17;;;;;;;29.27;14.20;;;;;;;-3.63;84.32;100546.75;5097157;27;20038;-64
2021/12/13 00:59:50;;;;;;;34.65;14.55;;;;;;;-3.57;83.54;100536.31;5115747;27;20038;-66
2021/12/13 01:02:17;;;;;;;37.80;17.00;;;;;;;-3.67;83.86;100535.44;5097126;27;20129;-65
2021/12/13 01:04:55;;;;;;;16.13;10.13;;;;;;;-3.50;84.48;100539.78;5115643;27;20049;-65
2021/12/13 01:07:32;;;;;;;30.77;13.88;;;;;;;-3.64;83.73;100549.34;5097013;27;20039;-64
2021/12/13 01:10:48;;;;;;;27.45;10.57;;;;;;;-3.43;83.68;100552.81;5115679;27;20049;-64
2021/12/13 01:13:19;;;;;;;31.15;13.73;;;;;;;-3.56;83.66;100531.97;4995518;28;20469;-66
2021/12/13 01:16:15;;;;;;;10.57;4.95;;;;;;;-3.48;83.95;100530.22;5012117;28;20515;-65
2021/12/13 01:21:41;;;;;;;17.08;8.50;;;;;;;-3.64;83.06;100524.16;5011857;28;20738;-65
2021/12/13 01:24:13;;;;;;;26.33;11.32;;;;;;;-3.64;83.50;100534.56;4995086;28;20045;-66
2021/12/13 01:26:46;;;;;;;17.60;8.80;;;;;;;-3.68;83.25;100532.81;5011726;28;20501;-65
2021/12/13 01:29:18;;;;;;;23.35;11.02;;;;;;;-3.83;83.60;100522.38;4995308;28;20048;-66
2021/12/13 01:31:52;;;;;;;21.08;10.35;;;;;;;-3.78;84.43;100531.09;5011693;28;20131;-67
2021/12/13 01:34:17;;;;;;;29.33;12.77;;;;;;;-4.04;84.15;100547.53;5011708;28;20045;-66
2021/12/13 01:36:54;;;;;;;24.70;11.88;;;;;;;-3.95;85.09;100540.63;4994834;28;20435;-64
2021/12/13 01:39:22;;;;;;;14.40;6.13;;;;;;;-3.76;84.83;100531.97;5011951;28;20044;-70
2021/12/13 01:41:59;;;;;;;19.02;8.68;;;;;;;-3.79;85.11;100539.78;4996028;28;20511;-68
2021/12/13 01:44:29;;;;;;;19.77;9.27;;;;;;;-3.68;84.74;100538.91;5012681;28;20120;-68
2021/12/13 01:47:16;;;;;;;23.85;10.18;;;;;;;-3.60;84.83;100530.22;5012391;28;20045;-69
2021/12/13 01:49:51;;;;;;;30.77;12.88;;;;;;;-3.77;83.86;100525.00;5067302;27;20504;-64
2021/12/13 01:52:18;;;;;;;18.48;8.52;;;;;;;-3.62;84.35;100530.25;5096708;27;20142;-67
2021/12/13 01:54:43;;;;;;;19.15;10.43;;;;;;;-3.74;84.36;100536.31;5097046;27;20201;-64
2021/12/13 01:59:54;;;;;;;18.50;9.77;;;;;;;-3.83;84.52;100538.03;5096859;27;20038;-64
2021/12/13 02:02:29;;;;;;;20.95;11.82;;;;;;;-3.79;84.82;100524.13;5115780;27;20058;-64
2021/12/13 02:05:05;;;;;;;20.83;10.30;;;;;;;-3.77;84.07;100523.28;5097272;27;20054;-64
2021/12/13 02:08:14;;;;;;;24.73;11.23;;;;;;;-3.79;84.84;100526.75;5097200;27;20046;-64
2021/12/13 02:10:49;;;;;;;27.38;12.75;;;;;;;-3.77;84.01;100518.06;4995033;28;20072;-63
2021/12/13 02:13:20;;;;;;;24.10;8.23;;;;;;;-3.70;84.35;100519.78;5011673;28;20045;-63
2021/12/13 02:18:35;;;;;;;14.35;5.70;;;;;;;-3.46;84.24;100502.41;5011926;28;20052;-70
2021/12/13 02:21:11;;;;;;;27.73;13.10;;;;;;;-3.84;84.13;100498.09;4995908;28;20088;-63
2021/12/13 02:23:42;;;;;;;39.92;15.85;;;;;;;-3.88;84.65;100490.28;5011787;28;20083;-65
2021/12/13 02:26:08;;;;;;;18.08;7.85;;;;;;;-3.70;84.78;100503.28;4995604;28;20045;-67
2021/12/13 02:28:37;;;;;;;26.40;10.80;;;;;;;-3.77;84.32;100498.97;4979206;28;20095;-64
2021/12/13 02:31:20;;;;;;;26.95;11.45;;;;;;;-3.90;84.72;100484.19;4995198;28;20067;-64
2021/12/13 02:33:49;;;;;;;29.85;13.85;;;;;;;-3.97;84.70;100485.94;4997024;28;20586;-64
2021/12/13 02:36:24;;;;;;;26.33;12.40;;;;;;;-3.89;84.88;100492.00;5012572;28;20036;-64
2021/12/13 02:38:53;;;;;;;31.08;14.20;;;;;;;-3.87;85.22;100487.69;5014993;28;20512;-66
2021/12/13 02:41:22;;;;;;;28.67;11.70;;;;;;;-3.92;85.22;100492.00;5016731;28;20506;-63
2021/12/13 02:43:50;;;;;;;23.08;11.90;;;;;;;-3.83;85.37;100494.59;4999630;28;20467;-63
2021/12/13 02:46:15;;;;;;;25.90;11.90;;;;;;;-3.71;85.04;100480.72;5011531;27;20033;-63
2021/12/13 02:49:05;;;;;;;24.02;11.48;;;;;;;-3.62;84.74;100485.06;5117909;27;20046;-65
2021/12/13 02:51:37;;;;;;;28.05;11.98;;;;;;;-3.73;84.66;100490.28;5120026;27;20118;-65
2021/12/13 02:54:08;;;;;;;27.95;11.43;;;;;;;-3.60;84.43;100480.69;5084526;27;20055;-66
2021/12/13 02:56:40;;;;;;;26.77;13.38;;;;;;;-3.79;84.91;100493.75;5101877;27;20412;-67
2021/12/13 02:59:07;;;;;;;26.67;10.65;;;;;;;-3.75;85.09;100492.88;5119735;27;20043;-64
2021/12/13 03:02:01;;;;;;;28.52;12.05;;;;;;;-3.72;84.74;100499.81;5102705;27;20042;-70
2021/12/13 03:04:28;;;;;;;24.08;11.25;;;;;;;-3.67;84.82;100480.72;5121840;27;20504;-63
2021/12/13 03:07:00;;;;;;;11.82;5.78;;;;;;;-3.52;84.60;100487.66;5124563;27;20141;-67
2021/12/13 03:09:29;;;;;;;27.77;10.82;;;;;;;-3.64;84.54;100476.38;5143831;27;20053;-67
2021/12/13 03:11:56;;;;;;;20.77;8.45;;;;;;;-3.59;83.86;100465.06;5123519;27;20034;-64
2021/12/13 03:14:23;;;;;;;33.08;12.82;;;;;;;-3.63;84.00;100471.19;5121644;27;20129;-65
2021/12/13 03:17:06;;;;;;;38.83;15.60;;;;;;;-3.79;84.01;100465.09;5140425;27;20503;-66
2021/12/13 03:19:39;;;;;;;28.02;9.43;;;;;;;-3.63;84.44;100454.66;5104107;27;20045;-64
2021/12/13 03:22:42;;;;;;;36.10;13.15;;;;;;;-3.67;84.25;100441.63;5103842;27;20395;-66
2021/12/13 03:25:12;;;;;;;33.17;15.27;;;;;;;-3.72;84.83;100447.72;5139254;27;20038;-64
2021/12/13 03:27:46;;;;;;;32.33;14.77;;;;;;;-3.80;85.64;100449.47;5139309;27;20042;-65
2021/12/13 03:30:19;;;;;;;29.08;14.00;;;;;;;-3.69;85.28;100455.53;5138978;27;20046;-65
2021/12/13 03:32:59;;;;;;;30.70;13.98;;;;;;;-3.58;85.07;100461.59;5138855;27;20049;-63
2021/12/13 03:35:23;;;;;;;33.63;13.45;;;;;;;-3.60;85.21;100462.47;5138808;27;20121;-64
2021/12/13 11:30:20;;;;;;;36.85;17.35;;;;;;;-2.15;81.62;100359.16;4963893;23;20426;-70
2021/12/13 11:33:09;;;;;;;40.70;20.40;;;;;;;-2.12;81.86;100360.84;4846379;29;20056;-71
2021/12/13 11:36:02;;;;;;;40.28;19.60;;;;;;;-2.18;81.49;100356.56;4854565;29;20116;-71
2021/12/13 11:39:11;;;;;;;43.10;20.83;;;;;;;-2.09;82.51;100356.47;4863463;29;20582;-71
2021/12/13 11:41:47;;;;;;;39.88;18.58;;;;;;;-2.16;82.43;100344.34;4863191;29;20908;-70
2021/12/13 11:44:49;;;;;;;38.72;18.70;;;;;;;-2.16;81.44;100339.13;4863114;29;20135;-70
2021/12/13 11:47:29;;;;;;;39.22;18.02;;;;;;;-2.08;81.21;100328.59;4830591;29;20083;-70
2021/12/13 11:50:11;;;;;;;40.55;17.90;;;;;;;-2.00;81.57;100327.63;4845996;29;20072;-70
2021/12/13 11:53:21;;;;;;;40.17;18.85;;;;;;;-1.85;81.71;100324.00;4846020;29;20467;-72
2021/12/13 11:56:19;;;;;;;36.40;17.85;;;;;;;-1.76;81.24;100323.03;4863785;29;20151;-71
2021/12/13 11:59:15;;;;;;;41.38;20.10;;;;;;;-1.84;80.72;100323.13;4839637;29;20152;-71
2021/12/13 12:01:55;;;;;;;41.75;19.27;;;;;;;-1.93;81.05;100328.47;4862560;29;20048;-71
2021/12/13 12:04:53;;;;;;;35.70;17.25;;;;;;;-1.86;80.76;100328.38;4862881;29;20127;-74
2021/12/13 12:07:36;;;;;;;42.28;18.17;;;;;;;-1.93;80.50;100345.00;4807747;29;20566;-65
2021/12/13 12:10:16;;;;;;;33.33;15.48;;;;;;;-1.81;80.93;100337.94;4792614;29;20057;-70
2021/12/13 12:13:07;;;;;;;35.50;18.33;;;;;;;-1.96;80.44;100331.97;4822172;29;20194;-71
2021/12/13 12:15:36;;;;;;;44.88;18.10;;;;;;;-2.06;80.52;100345.13;4792934;29;20053;-72
2021/12/13 12:18:05;;;;;;;26.52;16.10;;;;;;;-1.99;81.39;100341.56;4823132;29;20049;-72
2021/12/13 12:20:33;;;;;;;35.22;15.65;;;;;;;-1.81;81.12;100340.53;4777226;29;20472;-71
2021/12/13 12:23:02;;;;;;;34.38;16.20;;;;;;;-1.88;81.08;100337.09;4792476;29;20140;-72
2021/12/13 12:25:31;;;;;;;36.95;17.55;;;;;;;-1.88;81.26;100331.88;4823210;29;20072;-71
2021/12/13 12:28:10;;;;;;;36.75;17.75;;;;;;;-1.89;81.16;100333.63;4823130;29;20126;-71
2021/12/13 12:30:40;;;;;;;32.67;15.63;;;;;;;-2.01;80.83;100338.97;4824320;29;20057;-74
2021/12/13 12:33:07;;;;;;;37.47;18.02;;;;;;;-1.98;81.39;100359.84;4823968;29;20106;-71
2021/12/13 12:35:38;;;;;;;38.38;16.02;;;;;;;-1.90;81.49;100362.38;4823597;29;20127;-66
2021/12/13 12:38:09;;;;;;;30.42;16.05;;;;;;;-1.86;81.41;100364.97;4823070;29;20121;-68
2021/12/13 12:41:17;;;;;;;20.17;13.35;;;;;;;-1.80;81.45;100360.53;4822723;29;20053;-71
2021/12/13 12:43:52;;;;;;;23.67;12.90;;;;;;;-1.76;81.36;100367.47;4812687;29;20055;-74
2021/12/13 12:46:19;;;;;;;37.17;18.60;;;;;;;-1.81;80.80;100364.06;4844754;29;20093;-73
2021/12/13 12:48:47;;;;;;;36.92;19.15;;;;;;;-1.79;80.88;100354.44;4845015;29;20060;-71
2021/12/13 12:51:19;;;;;;;27.33;13.77;;;;;;;-1.69;80.91;100366.56;4844336;29;20131;-74
2021/12/13 12:54:00;;;;;;;33.20;17.50;;;;;;;-1.66;81.47;100366.50;4827202;29;20052;-71
2021/12/13 12:56:45;;;;;;;25.98;15.95;;;;;;;-1.73;81.42;100372.69;4812635;29;20044;-71
2021/12/13 12:59:19;;;;;;;26.35;13.77;;;;;;;-1.68;81.31;100368.25;4812999;29;20055;-72
2021/12/13 13:01:53;;;;;;;32.57;15.80;;;;;;;-1.77;81.18;100369.22;4825275;29;20040;-71
2021/12/13 13:04:24;;;;;;;32.90;16.27;;;;;;;-1.68;81.07;100365.63;4859291;29;20097;-71
2021/12/13 13:06:56;;;;;;;39.63;19.08;;;;;;;-1.74;81.02;100368.34;4856162;29;20059;-73
2021/12/13 13:09:23;;;;;;;30.38;17.42;;;;;;;-1.89;81.40;100364.13;4826974;29;20053;-71
2021/12/13 13:11:51;;;;;;;31.77;13.15;;;;;;;-1.78;81.39;100364.88;4843272;29;20057;-72
2021/12/13 13:14:30;;;;;;;34.80;17.45;;;;;;;-1.84;81.12;100363.22;4826389;29;20049;-71
2021/12/13 13:17:04;;;;;;;39.22;20.25;;;;;;;-1.96;81.60;100358.09;4842960;29;20495;-70
2021/12/13 13:19:32;;;;;;;36.73;17.27;;;;;;;-1.88;82.00;100356.25;4826133;29;20045;-71
2021/12/13 13:22:05;;;;;;;29.95;15.25;;;;;;;-1.70;81.92;100367.44;4842789;29;20288;-71
2021/12/13 13:24:31;;;;;;;34.55;17.55;;;;;;;-1.60;81.41;100358.59;4826118;29;20901;-71
2021/12/13 13:26:56;;;;;;;32.85;14.68;;;;;;;-1.67;81.16;100357.78;4842883;29;20140;-72
2021/12/13 13:29:21;;;;;;;32.80;15.80;;;;;;;-1.73;81.16;100368.31;4843034;29;20139;-72
2021/12/13 13:31:59;;;;;;;30.17;14.95;;;;;;;-1.69;81.21;100364.78;4842579;29;20053;-72
2021/12/13 13:34:28;;;;;;;31.23;16.20;;;;;;;-1.74;81.60;100360.50;4842803;29;20053;-71
2021/12/13 13:36:57;;;;;;;27.30;15.32;;;;;;;-1.71;81.43;100374.41;4826026;29;20087;-71
2021/12/13 13:39:27;;;;;;;31.90;16.63;;;;;;;-1.74;81.60;100365.72;4842526;29;20529;-71
2021/12/13 13:42:30;;;;;;;30.75;16.73;;;;;;;-1.64;81.69;100359.50;4842633;29;20064;-71
2021/12/13 13:45:06;;;;;;;34.22;17.02;;;;;;;-1.68;81.53;100361.28;4785790;29;20066;-71
2021/12/13 13:47:39;;;;;;;34.70;19.00;;;;;;;-1.72;81.50;100359.59;4785558;29;20293;-71
2021/12/13 13:50:19;;;;;;;32.47;17.48;;;;;;;-1.65;81.68;100365.63;4785440;29;20140;-71
2021/12/13 13:52:45;;;;;;;29.95;16.90;;;;;;;-1.66;81.87;100358.66;4770144;29;20050;-67
2021/12/13 13:55:41;;;;;;;32.97;17.52;;;;;;;-1.55;81.87;100355.03;4785640;29;20050;-73
2021/12/13 13:58:18;;;;;;;29.40;15.20;;;;;;;-1.53;81.80;100353.28;4736552;30;20055;-74
2021/12/13 14:00:52;;;;;;;41.25;16.70;;;;;;;-1.49;81.80;100348.91;4749751;30;20427;-73
2021/12/13 14:03:16;;;;;;;31.35;17.33;;;;;;;-1.55;81.39;100349.81;4735229;30;20063;-72
2021/12/13 14:05:43;;;;;;;36.30;16.95;;;;;;;-1.57;82.03;100348.09;4736146;30;20063;-71
2021/12/13 14:08:24;;;;;;;31.08;17.17;;;;;;;-1.58;81.89;100344.63;4749647;30;20060;-72
2021/12/13 14:10:52;;;;;;;31.65;15.95;;;;;;;-1.59;81.91;100357.72;4749061;29;20058;-71
2021/12/13 14:13:17;;;;;;;32.38;16.40;;;;;;;-1.59;82.26;100350.75;4749996;30;20062;-70
2021/12/13 14:15:44;;;;;;;30.30;16.33;;;;;;;-1.55;82.22;100356.78;4751336;30;20612;-70
2021/12/13 14:18:14;;;;;;;31.73;16.67;;;;;;;-1.50;82.08;100352.41;4762235;29;20114;-70
2021/12/13 14:20:50;;;;;;;36.00;17.00;;;;;;;-1.52;82.05;100354.16;4789385;29;20061;-70
2021/12/13 14:23:32;;;;;;;27.23;16.48;;;;;;;-1.51;82.08;100351.53;4803836;29;20596;-70
2021/12/13 14:26:01;;;;;;;40.17;17.05;;;;;;;-1.56;81.59;100350.69;4800459;29;20042;-67
2021/12/13 14:28:36;;;;;;;35.05;16.77;;;;;;;-1.53;82.19;100347.19;4802356;29;20058;-69
2021/12/13 14:31:08;;;;;;;38.65;18.70;;;;;;;-1.55;82.06;100354.19;4803880;29;20114;-69
2021/12/13 14:33:40;;;;;;;36.78;16.13;;;;;;;-1.55;82.04;100349.81;4809006;29;20049;-69
2021/12/13 14:36:22;;;;;;;27.13;16.75;;;;;;;-1.51;82.21;100345.44;4829935;29;20059;-69
2021/12/13 14:38:58;;;;;;;27.80;15.63;;;;;;;-1.54;82.25;100348.94;4847443;29;20047;-70
2021/12/13 14:41:31;;;;;;;31.67;16.75;;;;;;;-1.51;82.37;100354.13;4832658;29;20055;-71
2021/12/13 14:44:01;;;;;;;29.80;16.58;;;;;;;-1.46;82.74;100338.38;4834788;29;20843;-70
2021/12/13 14:46:48;;;;;;;41.17;18.55;;;;;;;-1.38;82.36;100341.78;4844712;29;20052;-70
2021/12/13 14:49:22;;;;;;;32.40;17.60;;;;;;;-1.39;82.60;100345.28;4845236;29;20412;-69
2021/12/13 14:51:51;;;;;;;26.63;16.10;;;;;;;-1.38;82.46;100344.41;4845195;29;20570;-71
2021/12/13 14:54:23;;;;;;;31.45;15.80;;;;;;;-1.37;82.78;100338.28;4861128;29;20400;-71
2021/12/13 14:57:02;;;;;;;33.65;17.42;;;;;;;-1.33;82.36;100334.72;4865721;29;20451;-72
2021/12/13 14:59:30;;;;;;;27.25;14.55;;;;;;;-1.32;82.26;100340.84;4874626;29;20092;-71
2021/12/13 15:01:55;;;;;;;26.63;13.93;;;;;;;-1.32;82.17;100340.84;4846715;29;20076;-73
2021/12/13 15:04:25;;;;;;;26.27;15.07;;;;;;;-1.33;82.30;100341.72;4846390;29;20472;-70
2021/12/13 15:07:02;;;;;;;27.58;15.68;;;;;;;-1.33;82.37;100344.31;4846919;29;20045;-72
2021/12/13 15:09:34;;;;;;;32.28;14.05;;;;;;;-1.27;82.70;100339.03;4863754;29;20480;-65
2021/12/13 15:12:09;;;;;;;29.20;16.00;;;;;;;-1.24;82.44;100334.63;4846894;29;20052;-68
2021/12/13 15:14:38;;;;;;;26.45;14.05;;;;;;;-1.22;82.36;100332.84;4846470;29;20455;-68
2021/12/13 15:17:25;;;;;;;22.92;13.52;;;;;;;-1.22;82.42;100334.59;4831076;29;20059;-69
2021/12/13 15:19:53;;;;;;;26.60;15.32;;;;;;;-1.24;82.35;100337.22;4846668;29;20093;-71
2021/12/13 15:22:20;;;;;;;23.75;14.07;;;;;;;-1.24;82.43;100328.56;4846924;29;20661;-69
2021/12/13 15:24:45;;;;;;;31.95;15.25;;;;;;;-1.23;82.51;100330.25;4846614;29;20051;-70
2021/12/13 15:27:15;;;;;;;29.90;16.60;;;;;;;-1.22;82.79;100327.63;4864324;29;20056;-77
2021/12/13 15:29:41;;;;;;;29.10;15.70;;;;;;;-1.20;82.34;100343.31;4863905;29;20169;-69
2021/12/13 15:32:11;;;;;;;28.58;15.73;;;;;;;-1.16;82.31;100334.53;4862874;29;20090;-69
2021/12/13 15:34:47;;;;;;;27.52;15.93;;;;;;;-1.16;82.63;100338.03;4862928;29;20143;-71
2021/12/13 15:37:43;;;;;;;25.75;14.35;;;;;;;-1.10;82.53;100332.69;4846236;29;20109;-68
2021/12/13 15:40:19;;;;;;;25.98;12.23;;;;;;;-1.03;82.64;100323.03;4822887;29;20050;-69
2021/12/13 15:42:48;;;;;;;28.50;15.27;;;;;;;-1.05;82.24;100319.56;4807903;29;20053;-72
2021/12/13 15:45:12;;;;;;;27.00;13.77;;;;;;;-1.08;82.05;100319.59;4793042;29;20575;-71
2021/12/13 15:50:29;;;;;;;25.30;14.77;;;;;;;-1.08;82.43;100322.22;4808448;29;20058;-67
2021/12/13 15:53:06;;;;;;;25.08;14.60;;;;;;;-1.06;82.22;100322.19;4808466;29;20041;-65
2021/12/13 15:55:38;;;;;;;29.83;17.17;;;;;;;-1.13;82.28;100322.25;4823995;29;20453;-67
2021/12/13 15:58:16;;;;;;;29.52;15.30;;;;;;;-1.06;82.41;100309.97;4822010;29;20052;-70
2021/12/13 16:00:41;;;;;;;33.97;16.10;;;;;;;-1.03;81.94;100316.94;4796790;29;20058;-70
2021/12/13 16:03:18;;;;;;;25.10;13.88;;;;;;;-0.99;82.33;100314.22;4822121;29;20050;-68
2021/12/13 16:05:44;;;;;;;26.92;14.70;;;;;;;-1.03;82.22;100317.78;4821198;29;20539;-73
2021/12/13 16:08:09;;;;;;;25.88;14.25;;;;;;;-1.03;82.25;100312.56;4823066;29;20049;-71
2021/12/13 16:10:38;;;;;;;26.98;13.82;;;;;;;-1.02;82.30;100322.16;4822179;29;20129;-69
2021/12/13 16:13:05;;;;;;;27.70;13.80;;;;;;;-0.98;82.22;100315.09;4822667;29;20041;-71
2021/12/13 16:15:31;;;;;;;30.13;13.98;;;;;;;-0.95;82.49;100305.47;4825338;29;20049;-69
2021/12/13 16:18:02;;;;;;;28.05;13.95;;;;;;;-0.88;82.52;100316.69;4845172;29;20056;-69
2021/12/13 16:20:26;;;;;;;32.17;14.93;;;;;;;-0.87;82.40;100310.56;4845672;29;20111;-70
2021/12/13 16:23:25;;;;;;;26.05;15.27;;;;;;;-0.80;82.51;100320.97;4845658;29;20060;-71
2021/12/13 16:26:00;;;;;;;28.52;14.18;;;;;;;-0.75;82.31;100323.50;4861191;29;20040;-69
2021/12/13 16:28:35;;;;;;;27.50;15.65;;;;;;;-0.76;82.37;100311.28;4861359;29;20127;-70
2021/12/13 16:31:11;;;;;;;25.42;13.55;;;;;;;-0.73;82.23;100316.47;4861678;29;20539;-69
2021/12/13 16:33:41;;;;;;;28.83;15.32;;;;;;;-0.70;82.53;100313.81;4828996;29;20052;-73
2021/12/13 16:36:17;;;;;;;25.55;14.73;;;;;;;-0.65;82.19;100319.84;4844986;29;20527;-71
2021/12/13 16:38:50;;;;;;;28.63;14.57;;;;;;;-0.62;82.38;100314.56;4844536;29;20048;-68
2021/12/13 16:41:15;;;;;;;26.85;14.60;;;;;;;-0.58;82.08;100320.63;4860890;29;20071;-70
2021/12/13 16:43:43;;;;;;;24.85;13.80;;;;;;;-0.56;81.96;100308.34;4828818;29;20223;-71
2021/12/13 16:46:10;;;;;;;30.08;15.82;;;;;;;-0.58;81.89;100313.63;4861525;29;20055;-73
2021/12/13 16:48:40;;;;;;;26.05;14.88;;;;;;;-0.63;81.90;100315.44;4830172;29;20074;-70
2021/12/13 16:51:39;;;;;;;27.75;15.25;;;;;;;-0.63;81.93;100325.91;4845528;29;20044;-67
2021/12/13 16:54:15;;;;;;;27.48;14.15;;;;;;;-0.59;82.06;100321.50;4824464;29;20411;-68
2021/12/13 16:56:41;;;;;;;22.95;14.05;;;;;;;-0.64;81.66;100324.19;4813275;29;20487;-67
2021/12/13 16:59:07;;;;;;;30.20;15.13;;;;;;;-0.66;81.92;100320.72;4828248;29;20057;-67
2021/12/13 17:01:38;;;;;;;22.77;12.27;;;;;;;-0.63;81.83;100314.59;4845386;29;20109;-66
2021/12/13 17:04:15;;;;;;;23.13;13.20;;;;;;;-0.61;81.89;100316.28;4827553;29;20056;-67
2021/12/13 17:06:49;;;;;;;27.50;13.48;;;;;;;-0.61;81.86;100307.56;4845389;29;20105;-68
2021/12/13 17:09:15;;;;;;;28.25;15.20;;;;;;;-0.61;81.98;100310.19;4846581;29;20056;-67
2021/12/13 17:11:40;;;;;;;25.50;14.55;;;;;;;-0.63;81.93;100315.44;4844059;29;20429;-66
2021/12/13 17:14:16;;;;;;;29.05;14.57;;;;;;;-0.56;82.07;100306.59;4827094;29;20420;-67
2021/12/13 17:16:55;;;;;;;27.13;13.32;;;;;;;-0.54;82.35;100299.59;4844213;29;20516;-66
2021/12/13 17:19:22;;;;;;;23.60;14.00;;;;;;;-0.50;82.37;100305.66;4827333;29;20492;-67
2021/12/13 17:21:51;;;;;;;25.73;13.93;;;;;;;-0.46;82.36;100305.59;4826758;29;20041;-67
2021/12/13 17:24:23;;;;;;;22.73;12.57;;;;;;;-0.43;82.47;100304.66;4842187;29;20045;-68
2021/12/13 17:26:55;;;;;;;23.23;14.23;;;;;;;-0.41;82.31;100301.13;4843753;29;20157;-69
2021/12/13 17:29:49;;;;;;;19.60;12.77;;;;;;;-0.36;82.28;100303.69;4844296;29;20053;-68
2021/12/13 17:32:19;;;;;;;21.80;11.23;;;;;;;-0.35;82.36;100302.78;4844214;29;20052;-68
2021/12/13 17:34:53;;;;;;;26.60;13.70;;;;;;;-0.32;82.17;100302.72;4863283;29;20070;-69
2021/12/13 17:37:23;;;;;;;20.83;11.18;;;;;;;-0.30;82.09;100305.31;4845781;29;20387;-69
2021/12/13 17:39:57;;;;;;;22.27;12.60;;;;;;;-0.29;82.04;100312.28;4830048;29;20131;-72
2021/12/13 17:42:23;;;;;;;22.48;12.27;;;;;;;-0.30;81.86;100310.56;4859092;29;20459;-67
2021/12/13 17:45:34;;;;;;;25.55;12.35;;;;;;;-0.24;81.97;100300.84;4844860;29;20058;-69
2021/12/13 17:48:10;;;;;;;22.20;12.40;;;;;;;-0.25;81.95;100308.75;4803278;29;20081;-68
2021/12/13 17:50:39;;;;;;;24.75;12.88;;;;;;;-0.28;81.70;100306.16;4788934;29;20142;-68
2021/12/13 17:53:08;;;;;;;19.48;11.02;;;;;;;-0.26;82.01;100307.00;4802953;29;20421;-68
2021/12/13 17:55:41;;;;;;;20.95;12.15;;;;;;;-0.24;81.98;100305.22;4786767;29;20505;-77
2021/12/13 17:58:17;;;;;;;23.20;12.68;;;;;;;-0.21;82.01;100307.78;4788720;29;20041;-68
2021/12/13 18:00:50;;;;;;;21.70;11.50;;;;;;;-0.20;81.99;100314.75;4787969;29;20131;-69
2021/12/13 18:03:17;;;;;;;20.83;12.32;;;;;;;-0.23;81.96;100302.59;4803224;29;20181;-64
2021/12/13 18:05:43;;;;;;;27.42;12.45;;;;;;;-0.23;82.02;100304.34;4805422;29;20130;-67
2021/12/13 18:08:11;;;;;;;22.48;13.00;;;;;;;-0.21;81.90;100300.78;4805289;29;20061;-70
2021/12/13 18:10:40;;;;;;;21.38;11.75;;;;;;;-0.21;81.60;100306.03;4806571;29;20398;-72
2021/12/13 18:13:10;;;;;;;21.08;11.98;;;;;;;-0.21;82.04;100299.91;4789680;29;20049;-79
2021/12/13 18:15:42;;;;;;;22.90;12.98;;;;;;;-0.21;81.77;100302.53;4774366;29;20517;-73
2021/12/13 18:18:11;;;;;;;24.83;12.77;;;;;;;-0.21;81.81;100297.28;4773168;29;20047;-70
2021/12/13 18:20:58;;;;;;;19.02;11.57;;;;;;;-0.18;81.97;100297.25;4799009;29;20054;-71
2021/12/13 18:23:34;;;;;;;27.10;13.30;;;;;;;-0.19;82.14;100300.75;4861976;29;20559;-73
2021/12/13 18:26:28;;;;;;;21.85;11.63;;;;;;;-0.15;82.06;100305.94;4840324;29;20535;-73
2021/12/13 18:28:57;;;;;;;28.33;13.30;;;;;;;-0.17;81.94;100306.84;4841807;29;20447;-73
2021/12/13 18:31:27;;;;;;;27.98;14.07;;;;;;;-0.14;82.04;100304.19;4826913;29;20519;-74
2021/12/13 18:34:09;;;;;;;25.55;13.88;;;;;;;-0.08;81.96;100304.06;4842775;29;20061;-70
2021/12/13 18:36:48;;;;;;;27.50;13.70;;;;;;;-0.10;81.99;100304.06;4842286;29;20393;-72
2021/12/13 18:39:32;;;;;;;21.65;12.52;;;;;;;-0.05;81.98;100304.00;4842225;29;20040;-71
2021/12/13 18:42:06;;;;;;;22.50;14.25;;;;;;;-0.06;82.03;100292.66;4840004;29;20044;-71
2021/12/13 18:44:51;;;;;;;24.45;14.07;;;;;;;-0.04;82.03;100292.63;4842365;29;20041;-75
2021/12/13 18:47:18;;;;;;;28.85;14.10;;;;;;;-0.03;81.93;100291.75;4844708;29;20539;-73
2021/12/13 18:50:00;;;;;;;25.73;14.85;;;;;;;0.05;81.81;100291.59;4847548;29;20048;-72
2021/12/13 18:52:33;;;;;;;26.23;13.98;;;;;;;0.02;81.57;100296.88;4845809;29;20060;-74
2021/12/13 18:55:12;;;;;;;32.17;16.25;;;;;;;0.07;81.75;100295.91;4843800;29;20404;-74
2021/12/13 18:57:37;;;;;;;26.40;15.80;;;;;;;0.03;81.50;100288.13;4824538;29;20052;-75
2021/12/13 19:00:23;;;;;;;31.73;16.67;;;;;;;0.08;81.46;100292.41;4844136;29;20076;-73
2021/12/13 19:03:16;;;;;;;28.85;16.23;;;;;;;0.08;81.53;100287.16;4844190;29;20131;-74
2021/12/13 19:05:52;;;;;;;26.13;14.57;;;;;;;0.06;81.62;100281.09;4845397;29;20052;-74
2021/12/13 19:08:30;;;;;;;25.95;14.82;;;;;;;0.04;81.56;100285.47;4844142;29;20132;-74
2021/12/13 19:11:01;;;;;;;35.97;16.20;;;;;;;0.05;81.46;100286.34;4845069;29;20074;-74
2021/12/13 19:13:42;;;;;;;27.58;14.35;;;;;;;0.03;81.51;100286.38;4845267;29;20794;-75
2021/12/13 19:16:22;;;;;;;22.80;13.55;;;;;;;0.01;81.72;100285.53;4843471;29;20508;-72
2021/12/13 19:19:02;;;;;;;22.42;13.75;;;;;;;0.05;81.73;100275.88;4843849;29;20492;-74
2021/12/13 19:22:10;;;;;;;26.35;14.32;;;;;;;0.07;81.82;100276.72;4843086;29;20053;-75
2021/12/13 19:24:38;;;;;;;24.38;12.98;;;;;;;0.03;81.89;100282.88;4843257;29;20076;-78
2021/12/13 19:27:51;;;;;;;19.25;11.27;;;;;;;0.02;81.83;100282.03;4843250;29;20071;-69
2021/12/13 19:30:39;;;;;;;22.45;12.25;;;;;;;-0.02;81.70;100280.38;4823592;29;20065;-71
2021/12/13 19:33:12;;;;;;;22.27;12.98;;;;;;;-0.02;81.85;100275.13;4844132;29;20101;-71
2021/12/13 19:35:44;;;;;;;23.15;13.38;;;;;;;-0.05;81.79;100280.41;4827484;29;20098;-71
2021/12/13 19:38:26;;;;;;;21.40;13.15;;;;;;;-0.03;81.83;100279.50;4843103;29;20082;-71
2021/12/13 19:41:03;;;;;;;20.95;12.88;;;;;;;-0.06;81.94;100289.16;4842858;29;20052;-70
2021/12/13 19:44:06;;;;;;;17.67;10.82;;;;;;;-0.05;81.77;100294.38;4827911;29;20052;-71
2021/12/13 19:46:43;;;;;;;19.30;10.52;;;;;;;-0.04;81.89;100287.38;4756490;29;20127;-71
2021/12/13 19:49:34;;;;;;;16.95;10.48;;;;;;;-0.04;82.02;100290.00;4784026;29;20593;-70